Pflugerville, Texas
Current Conditions -  °F | °C
As of 11:35 PM on Monday 26 Jan 2015 (Local Time) from KEDC Reporting Station
Clear Clear  
Wind Chill: 54°   Ceiling: Unl
Heat Index: 54°   Visibility: 10mi
Dew Point: 39°   Wind: 7mph
Humidity: 58%   Direction: 260°W
Pressure: 30.17"   Gusts: NA
Location:  30.44°N, 97.62°W
Report Text: KEDC 270535Z AUTO 26006KT 10SM CLR 12/04 A3017 RMK AO2
Loading
Personal Weather Stations






























Interactive Weather Map New forecast layout! Learn more

10-Day Weather Forecast

Advertisements
Track Severe Weather on mobile